sensor_id;sensor_type;location;lat;lon;timestamp;P1;durP1;ratioP1;P2;durP2;ratioP2
4222;SDS011;2125;51.436;14.138;2022-12-29T00:00:08;1.37;;;1.00;;
4222;SDS011;2125;51.436;14.138;2022-12-29T00:02:35;1.70;;;1.20;;
4222;SDS011;2125;51.436;14.138;2022-12-29T00:05:02;1.90;;;1.23;;
4222;SDS011;2125;51.436;14.138;2022-12-29T00:07:29;2.30;;;1.50;;
4222;SDS011;2125;51.436;14.138;2022-12-29T00:09:56;1.77;;;1.37;;
4222;SDS011;2125;51.436;14.138;2022-12-29T00:12:24;1.70;;;1.20;;
4222;SDS011;2125;51.436;14.138;2022-12-29T00:15:10;1.90;;;1.17;;
4222;SDS011;2125;51.436;14.138;2022-12-29T00:17:54;1.40;;;0.97;;
4222;SDS011;2125;51.436;14.138;2022-12-29T00:20:21;2.47;;;1.50;;
4222;SDS011;2125;51.436;14.138;2022-12-29T00:23:07;1.80;;;1.27;;
4222;SDS011;2125;51.436;14.138;2022-12-29T00:25:54;1.83;;;1.13;;
4222;SDS011;2125;51.436;14.138;2022-12-29T00:28:40;2.50;;;1.63;;
4222;SDS011;2125;51.436;14.138;2022-12-29T00:31:24;1.70;;;1.10;;
4222;SDS011;2125;51.436;14.138;2022-12-29T00:34:06;1.87;;;1.40;;
4222;SDS011;2125;51.436;14.138;2022-12-29T00:36:52;2.50;;;1.40;;
4222;SDS011;2125;51.436;14.138;2022-12-29T00:39:19;3.20;;;1.33;;
4222;SDS011;2125;51.436;14.138;2022-12-29T00:42:03;2.70;;;1.20;;
4222;SDS011;2125;51.436;14.138;2022-12-29T00:44:49;1.80;;;1.20;;
4222;SDS011;2125;51.436;14.138;2022-12-29T00:47:16;1.57;;;1.17;;
4222;SDS011;2125;51.436;14.138;2022-12-29T00:49:42;4.20;;;1.17;;
4222;SDS011;2125;51.436;14.138;2022-12-29T00:52:09;1.90;;;1.33;;
4222;SDS011;2125;51.436;14.138;2022-12-29T00:54:37;1.43;;;1.20;;
4222;SDS011;2125;51.436;14.138;2022-12-29T00:57:05;2.00;;;1.33;;
4222;SDS011;2125;51.436;14.138;2022-12-29T00:59:34;2.67;;;1.60;;
4222;SDS011;2125;51.436;14.138;2022-12-29T01:02:02;2.67;;;1.50;;
4222;SDS011;2125;51.436;14.138;2022-12-29T01:04:29;4.77;;;1.97;;
4222;SDS011;2125;51.436;14.138;2022-12-29T01:06:55;3.97;;;1.50;;
4222;SDS011;2125;51.436;14.138;2022-12-29T01:09:22;6.20;;;2.20;;
4222;SDS011;2125;51.436;14.138;2022-12-29T01:12:07;5.10;;;1.60;;
4222;SDS011;2125;51.436;14.138;2022-12-29T01:14:35;2.57;;;1.33;;
4222;SDS011;2125;51.436;14.138;2022-12-29T01:17:04;2.60;;;1.60;;
4222;SDS011;2125;51.436;14.138;2022-12-29T01:19:31;4.03;;;1.60;;
4222;SDS011;2125;51.436;14.138;2022-12-29T01:21:58;3.47;;;1.83;;
4222;SDS011;2125;51.436;14.138;2022-12-29T01:24:24;1.70;;;1.33;;
4222;SDS011;2125;51.436;14.138;2022-12-29T01:26:51;3.30;;;1.37;;
4222;SDS011;2125;51.436;14.138;2022-12-29T01:29:19;2.77;;;1.37;;
4222;SDS011;2125;51.436;14.138;2022-12-29T01:31:45;3.93;;;1.40;;
4222;SDS011;2125;51.436;14.138;2022-12-29T01:34:15;4.30;;;1.30;;
4222;SDS011;2125;51.436;14.138;2022-12-29T01:36:42;1.90;;;1.37;;
4222;SDS011;2125;51.436;14.138;2022-12-29T01:39:09;1.70;;;1.20;;
4222;SDS011;2125;51.436;14.138;2022-12-29T01:41:36;1.43;;;1.07;;
4222;SDS011;2125;51.436;14.138;2022-12-29T01:44:02;1.53;;;1.40;;
4222;SDS011;2125;51.436;14.138;2022-12-29T01:46:44;2.07;;;1.30;;
4222;SDS011;2125;51.436;14.138;2022-12-29T01:49:17;3.00;;;1.43;;
4222;SDS011;2125;51.436;14.138;2022-12-29T01:51:46;2.10;;;1.40;;
4222;SDS011;2125;51.436;14.138;2022-12-29T01:54:17;1.40;;;1.00;;
4222;SDS011;2125;51.436;14.138;2022-12-29T01:56:48;2.87;;;1.40;;
4222;SDS011;2125;51.436;14.138;2022-12-29T01:59:18;2.67;;;1.40;;
4222;SDS011;2125;51.436;14.138;2022-12-29T02:01:48;5.80;;;1.60;;
4222;SDS011;2125;51.436;14.138;2022-12-29T02:04:17;4.37;;;1.33;;
4222;SDS011;2125;51.436;14.138;2022-12-29T02:06:45;1.67;;;1.03;;
4222;SDS011;2125;51.436;14.138;2022-12-29T02:09:17;6.13;;;2.30;;
4222;SDS011;2125;51.436;14.138;2022-12-29T02:11:44;2.40;;;1.60;;
4222;SDS011;2125;51.436;14.138;2022-12-29T02:14:11;24.10;;;8.40;;
4222;SDS011;2125;51.436;14.138;2022-12-29T02:16:42;25.17;;;12.03;;
4222;SDS011;2125;51.436;14.138;2022-12-29T02:19:31;10.30;;;4.60;;
4222;SDS011;2125;51.436;14.138;2022-12-29T02:22:27;46.60;;;19.53;;
4222;SDS011;2125;51.436;14.138;2022-12-29T02:27:56;23.87;;;11.87;;
4222;SDS011;2125;51.436;14.138;2022-12-29T02:30:43;17.50;;;9.47;;
4222;SDS011;2125;51.436;14.138;2022-12-29T02:33:21;7.70;;;3.50;;
4222;SDS011;2125;51.436;14.138;2022-12-29T02:35:56;1.73;;;1.40;;
4222;SDS011;2125;51.436;14.138;2022-12-29T02:38:37;2.43;;;1.70;;
4222;SDS011;2125;51.436;14.138;2022-12-29T02:41:17;11.93;;;6.73;;
4222;SDS011;2125;51.436;14.138;2022-12-29T02:43:48;2.30;;;1.40;;
4222;SDS011;2125;51.436;14.138;2022-12-29T02:46:21;2.30;;;1.10;;
4222;SDS011;2125;51.436;14.138;2022-12-29T02:48:54;8.33;;;4.53;;
4222;SDS011;2125;51.436;14.138;2022-12-29T02:51:27;6.77;;;3.40;;
4222;SDS011;2125;51.436;14.138;2022-12-29T02:53:59;4.13;;;2.30;;
4222;SDS011;2125;51.436;14.138;2022-12-29T02:56:43;5.83;;;3.20;;
4222;SDS011;2125;51.436;14.138;2022-12-29T02:59:10;6.40;;;3.33;;
4222;SDS011;2125;51.436;14.138;2022-12-29T03:01:45;5.27;;;3.40;;
4222;SDS011;2125;51.436;14.138;2022-12-29T03:04:50;2.17;;;1.33;;
4222;SDS011;2125;51.436;14.138;2022-12-29T03:07:29;4.53;;;1.43;;
4222;SDS011;2125;51.436;14.138;2022-12-29T03:10:07;2.47;;;1.80;;
4222;SDS011;2125;51.436;14.138;2022-12-29T03:12:46;2.37;;;1.40;;
4222;SDS011;2125;51.436;14.138;2022-12-29T03:15:39;3.47;;;1.37;;
4222;SDS011;2125;51.436;14.138;2022-12-29T03:18:30;1.47;;;1.00;;
4222;SDS011;2125;51.436;14.138;2022-12-29T03:21:04;5.50;;;1.33;;
4222;SDS011;2125;51.436;14.138;2022-12-29T03:23:35;1.90;;;1.60;;
4222;SDS011;2125;51.436;14.138;2022-12-29T03:26:05;2.00;;;1.30;;
4222;SDS011;2125;51.436;14.138;2022-12-29T03:28:35;5.37;;;1.50;;
4222;SDS011;2125;51.436;14.138;2022-12-29T03:31:05;2.03;;;1.30;;
4222;SDS011;2125;51.436;14.138;2022-12-29T03:33:35;2.63;;;1.57;;
4222;SDS011;2125;51.436;14.138;2022-12-29T03:36:04;1.97;;;1.40;;
4222;SDS011;2125;51.436;14.138;2022-12-29T03:38:34;1.63;;;1.40;;
4222;SDS011;2125;51.436;14.138;2022-12-29T03:41:07;1.67;;;1.57;;
4222;SDS011;2125;51.436;14.138;2022-12-29T03:43:36;2.23;;;1.50;;
4222;SDS011;2125;51.436;14.138;2022-12-29T03:46:04;7.93;;;4.30;;
4222;SDS011;2125;51.436;14.138;2022-12-29T03:48:31;1.73;;;1.37;;
4222;SDS011;2125;51.436;14.138;2022-12-29T03:50:59;1.40;;;1.13;;
4222;SDS011;2125;51.436;14.138;2022-12-29T03:53:26;1.83;;;1.20;;
4222;SDS011;2125;51.436;14.138;2022-12-29T03:55:52;2.10;;;1.40;;
4222;SDS011;2125;51.436;14.138;2022-12-29T03:58:19;1.87;;;1.30;;
4222;SDS011;2125;51.436;14.138;2022-12-29T04:00:45;3.60;;;2.57;;
4222;SDS011;2125;51.436;14.138;2022-12-29T04:03:12;6.03;;;4.23;;
4222;SDS011;2125;51.436;14.138;2022-12-29T04:05:39;1.80;;;1.00;;
4222;SDS011;2125;51.436;14.138;2022-12-29T04:08:06;3.23;;;2.20;;
4222;SDS011;2125;51.436;14.138;2022-12-29T04:10:33;3.50;;;2.07;;
4222;SDS011;2125;51.436;14.138;2022-12-29T04:13:02;1.80;;;1.40;;
4222;SDS011;2125;51.436;14.138;2022-12-29T04:15:29;1.73;;;1.50;;
4222;SDS011;2125;51.436;14.138;2022-12-29T04:17:55;2.43;;;1.73;;
4222;SDS011;2125;51.436;14.138;2022-12-29T04:20:22;3.53;;;1.40;;
4222;SDS011;2125;51.436;14.138;2022-12-29T04:23:07;3.70;;;2.63;;
4222;SDS011;2125;51.436;14.138;2022-12-29T04:25:34;5.77;;;2.10;;
4222;SDS011;2125;51.436;14.138;2022-12-29T04:28:01;2.43;;;1.60;;
4222;SDS011;2125;51.436;14.138;2022-12-29T04:30:28;6.30;;;1.60;;
4222;SDS011;2125;51.436;14.138;2022-12-29T04:32:54;2.57;;;1.33;;
4222;SDS011;2125;51.436;14.138;2022-12-29T04:35:21;2.30;;;1.50;;
4222;SDS011;2125;51.436;14.138;2022-12-29T04:37:47;1.37;;;1.27;;
4222;SDS011;2125;51.436;14.138;2022-12-29T04:40:15;4.90;;;1.77;;
4222;SDS011;2125;51.436;14.138;2022-12-29T04:42:42;2.23;;;1.27;;
4222;SDS011;2125;51.436;14.138;2022-12-29T04:45:09;2.93;;;1.63;;
4222;SDS011;2125;51.436;14.138;2022-12-29T04:47:36;1.87;;;1.13;;
4222;SDS011;2125;51.436;14.138;2022-12-29T04:50:03;1.50;;;1.00;;
4222;SDS011;2125;51.436;14.138;2022-12-29T04:52:30;3.70;;;1.37;;
4222;SDS011;2125;51.436;14.138;2022-12-29T04:54:57;3.33;;;1.27;;
4222;SDS011;2125;51.436;14.138;2022-12-29T04:57:25;3.50;;;2.00;;
4222;SDS011;2125;51.436;14.138;2022-12-29T04:59:52;1.77;;;1.20;;
4222;SDS011;2125;51.436;14.138;2022-12-29T05:02:18;1.60;;;1.27;;
4222;SDS011;2125;51.436;14.138;2022-12-29T05:04:45;2.60;;;1.10;;
4222;SDS011;2125;51.436;14.138;2022-12-29T05:07:11;3.33;;;1.47;;
4222;SDS011;2125;51.436;14.138;2022-12-29T05:09:38;1.90;;;1.13;;
4222;SDS011;2125;51.436;14.138;2022-12-29T05:12:05;1.50;;;1.13;;
4222;SDS011;2125;51.436;14.138;2022-12-29T05:14:33;1.30;;;1.10;;
4222;SDS011;2125;51.436;14.138;2022-12-29T05:17:02;1.87;;;1.20;;
4222;SDS011;2125;51.436;14.138;2022-12-29T05:19:29;1.70;;;1.30;;
4222;SDS011;2125;51.436;14.138;2022-12-29T05:21:56;2.00;;;1.27;;
4222;SDS011;2125;51.436;14.138;2022-12-29T05:24:22;3.80;;;1.50;;
4222;SDS011;2125;51.436;14.138;2022-12-29T05:26:49;4.47;;;2.00;;
4222;SDS011;2125;51.436;14.138;2022-12-29T05:29:16;1.50;;;1.20;;
4222;SDS011;2125;51.436;14.138;2022-12-29T05:31:44;5.80;;;2.80;;
4222;SDS011;2125;51.436;14.138;2022-12-29T05:34:10;1.53;;;1.27;;
4222;SDS011;2125;51.436;14.138;2022-12-29T05:36:37;2.27;;;1.40;;
4222;SDS011;2125;51.436;14.138;2022-12-29T05:39:04;2.30;;;1.50;;
4222;SDS011;2125;51.436;14.138;2022-12-29T05:41:32;2.83;;;1.30;;
4222;SDS011;2125;51.436;14.138;2022-12-29T05:43:59;3.47;;;2.00;;
4222;SDS011;2125;51.436;14.138;2022-12-29T05:46:26;3.17;;;2.00;;
4222;SDS011;2125;51.436;14.138;2022-12-29T05:48:54;2.40;;;1.60;;
4222;SDS011;2125;51.436;14.138;2022-12-29T05:51:20;2.83;;;1.43;;
4222;SDS011;2125;51.436;14.138;2022-12-29T05:53:47;7.37;;;1.30;;
4222;SDS011;2125;51.436;14.138;2022-12-29T05:56:14;3.83;;;2.07;;
4222;SDS011;2125;51.436;14.138;2022-12-29T05:58:40;12.33;;;1.80;;
4222;SDS011;2125;51.436;14.138;2022-12-29T06:01:07;8.03;;;3.30;;
4222;SDS011;2125;51.436;14.138;2022-12-29T06:03:34;3.77;;;2.40;;
4222;SDS011;2125;51.436;14.138;2022-12-29T06:06:02;3.17;;;2.03;;
4222;SDS011;2125;51.436;14.138;2022-12-29T06:08:28;29.77;;;16.33;;
4222;SDS011;2125;51.436;14.138;2022-12-29T06:10:55;7.73;;;4.37;;
4222;SDS011;2125;51.436;14.138;2022-12-29T06:13:22;8.30;;;5.90;;
4222;SDS011;2125;51.436;14.138;2022-12-29T06:15:48;7.97;;;4.90;;
4222;SDS011;2125;51.436;14.138;2022-12-29T06:18:15;10.13;;;6.20;;
4222;SDS011;2125;51.436;14.138;2022-12-29T06:20:42;12.10;;;5.23;;
4222;SDS011;2125;51.436;14.138;2022-12-29T06:23:10;4.10;;;2.10;;
4222;SDS011;2125;51.436;14.138;2022-12-29T06:25:38;22.47;;;8.97;;
4222;SDS011;2125;51.436;14.138;2022-12-29T06:28:04;8.00;;;5.00;;
4222;SDS011;2125;51.436;14.138;2022-12-29T06:30:31;16.30;;;6.80;;
4222;SDS011;2125;51.436;14.138;2022-12-29T06:32:59;10.00;;;5.10;;
4222;SDS011;2125;51.436;14.138;2022-12-29T06:35:26;9.40;;;4.00;;
4222;SDS011;2125;51.436;14.138;2022-12-29T06:37:53;5.77;;;3.07;;
4222;SDS011;2125;51.436;14.138;2022-12-29T06:40:20;6.80;;;4.13;;
4222;SDS011;2125;51.436;14.138;2022-12-29T06:42:48;10.67;;;4.27;;
4222;SDS011;2125;51.436;14.138;2022-12-29T06:45:14;14.70;;;7.70;;
4222;SDS011;2125;51.436;14.138;2022-12-29T06:47:41;10.40;;;4.33;;
4222;SDS011;2125;51.436;14.138;2022-12-29T06:50:08;6.23;;;3.97;;
4222;SDS011;2125;51.436;14.138;2022-12-29T06:52:35;9.30;;;4.57;;
4222;SDS011;2125;51.436;14.138;2022-12-29T06:55:01;11.60;;;6.30;;
4222;SDS011;2125;51.436;14.138;2022-12-29T06:57:29;8.13;;;5.27;;
4222;SDS011;2125;51.436;14.138;2022-12-29T06:59:56;8.97;;;5.17;;
4222;SDS011;2125;51.436;14.138;2022-12-29T07:02:23;7.37;;;4.30;;
4222;SDS011;2125;51.436;14.138;2022-12-29T07:04:50;6.37;;;3.10;;
4222;SDS011;2125;51.436;14.138;2022-12-29T07:07:17;9.37;;;3.80;;
4222;SDS011;2125;51.436;14.138;2022-12-29T07:09:43;5.80;;;4.10;;
4222;SDS011;2125;51.436;14.138;2022-12-29T07:12:10;5.17;;;3.13;;
4222;SDS011;2125;51.436;14.138;2022-12-29T07:14:38;43.87;;;17.17;;
4222;SDS011;2125;51.436;14.138;2022-12-29T07:17:05;17.00;;;10.73;;
4222;SDS011;2125;51.436;14.138;2022-12-29T07:19:31;14.20;;;8.33;;
4222;SDS011;2125;51.436;14.138;2022-12-29T07:21:58;9.33;;;5.63;;
4222;SDS011;2125;51.436;14.138;2022-12-29T07:24:26;23.43;;;10.20;;
4222;SDS011;2125;51.436;14.138;2022-12-29T07:26:52;92.47;;;30.30;;
4222;SDS011;2125;51.436;14.138;2022-12-29T07:29:19;75.87;;;25.63;;
4222;SDS011;2125;51.436;14.138;2022-12-29T07:31:47;105.50;;;32.33;;
4222;SDS011;2125;51.436;14.138;2022-12-29T07:34:14;138.27;;;43.73;;
4222;SDS011;2125;51.436;14.138;2022-12-29T07:36:40;151.40;;;48.03;;
4222;SDS011;2125;51.436;14.138;2022-12-29T07:39:07;101.23;;;34.90;;
4222;SDS011;2125;51.436;14.138;2022-12-29T07:41:34;35.80;;;15.37;;
4222;SDS011;2125;51.436;14.138;2022-12-29T07:44:00;12.67;;;4.90;;
4222;SDS011;2125;51.436;14.138;2022-12-29T07:46:27;7.53;;;4.07;;
4222;SDS011;2125;51.436;14.138;2022-12-29T07:48:55;6.73;;;3.30;;
4222;SDS011;2125;51.436;14.138;2022-12-29T07:51:23;5.37;;;2.90;;
4222;SDS011;2125;51.436;14.138;2022-12-29T07:53:49;17.33;;;5.77;;
4222;SDS011;2125;51.436;14.138;2022-12-29T07:56:16;13.83;;;5.13;;
4222;SDS011;2125;51.436;14.138;2022-12-29T07:58:42;19.60;;;9.87;;
4222;SDS011;2125;51.436;14.138;2022-12-29T08:01:09;18.73;;;10.47;;
4222;SDS011;2125;51.436;14.138;2022-12-29T08:03:36;37.23;;;18.50;;
4222;SDS011;2125;51.436;14.138;2022-12-29T08:06:04;149.40;;;47.83;;
4222;SDS011;2125;51.436;14.138;2022-12-29T08:08:31;133.60;;;52.47;;
4222;SDS011;2125;51.436;14.138;2022-12-29T08:10:57;14.17;;;7.17;;
4222;SDS011;2125;51.436;14.138;2022-12-29T08:13:24;11.87;;;5.63;;
4222;SDS011;2125;51.436;14.138;2022-12-29T08:15:51;8.93;;;2.97;;
4222;SDS011;2125;51.436;14.138;2022-12-29T08:18:17;5.47;;;2.87;;
4222;SDS011;2125;51.436;14.138;2022-12-29T08:20:44;3.10;;;1.70;;
4222;SDS011;2125;51.436;14.138;2022-12-29T08:23:12;2.20;;;1.63;;
4222;SDS011;2125;51.436;14.138;2022-12-29T08:25:39;1.70;;;1.20;;
4222;SDS011;2125;51.436;14.138;2022-12-29T08:28:06;1.30;;;1.00;;
4222;SDS011;2125;51.436;14.138;2022-12-29T08:30:33;2.00;;;1.43;;
4222;SDS011;2125;51.436;14.138;2022-12-29T08:33:00;1.73;;;1.50;;
4222;SDS011;2125;51.436;14.138;2022-12-29T08:35:26;0.93;;;0.77;;
4222;SDS011;2125;51.436;14.138;2022-12-29T08:37:53;2.40;;;0.93;;
4222;SDS011;2125;51.436;14.138;2022-12-29T08:40:21;0.80;;;0.77;;
4222;SDS011;2125;51.436;14.138;2022-12-29T08:42:47;2.13;;;1.53;;
4222;SDS011;2125;51.436;14.138;2022-12-29T08:45:14;6.23;;;3.23;;
4222;SDS011;2125;51.436;14.138;2022-12-29T08:47:40;0.60;;;0.50;;
4222;SDS011;2125;51.436;14.138;2022-12-29T08:50:07;1.60;;;1.00;;
4222;SDS011;2125;51.436;14.138;2022-12-29T08:52:34;1.70;;;1.37;;
4222;SDS011;2125;51.436;14.138;2022-12-29T08:55:03;1.00;;;0.80;;
4222;SDS011;2125;51.436;14.138;2022-12-29T08:57:31;1.87;;;1.43;;
4222;SDS011;2125;51.436;14.138;2022-12-29T08:59:58;3.10;;;1.83;;
4222;SDS011;2125;51.436;14.138;2022-12-29T09:02:25;1.07;;;0.83;;
4222;SDS011;2125;51.436;14.138;2022-12-29T09:04:51;1.43;;;1.13;;
4222;SDS011;2125;51.436;14.138;2022-12-29T09:07:18;2.00;;;1.30;;
4222;SDS011;2125;51.436;14.138;2022-12-29T09:09:44;8.87;;;4.80;;
4222;SDS011;2125;51.436;14.138;2022-12-29T09:12:11;2.40;;;1.67;;
4222;SDS011;2125;51.436;14.138;2022-12-29T09:14:39;2.37;;;1.30;;
4222;SDS011;2125;51.436;14.138;2022-12-29T09:17:07;1.60;;;1.50;;
4222;SDS011;2125;51.436;14.138;2022-12-29T09:19:52;3.73;;;1.30;;
4222;SDS011;2125;51.436;14.138;2022-12-29T09:22:18;1.73;;;1.07;;
4222;SDS011;2125;51.436;14.138;2022-12-29T09:24:45;1.53;;;1.17;;
4222;SDS011;2125;51.436;14.138;2022-12-29T09:27:11;1.10;;;0.93;;
4222;SDS011;2125;51.436;14.138;2022-12-29T09:29:39;3.00;;;1.43;;
4222;SDS011;2125;51.436;14.138;2022-12-29T09:32:06;4.60;;;1.30;;
4222;SDS011;2125;51.436;14.138;2022-12-29T09:34:33;2.90;;;1.77;;
4222;SDS011;2125;51.436;14.138;2022-12-29T09:36:59;1.30;;;0.93;;
4222;SDS011;2125;51.436;14.138;2022-12-29T09:39:26;4.73;;;1.40;;
4222;SDS011;2125;51.436;14.138;2022-12-29T09:41:57;3.10;;;1.43;;
4222;SDS011;2125;51.436;14.138;2022-12-29T09:44:29;3.80;;;1.87;;
4222;SDS011;2125;51.436;14.138;2022-12-29T09:47:06;1.53;;;1.10;;
4222;SDS011;2125;51.436;14.138;2022-12-29T09:49:38;1.67;;;0.87;;
4222;SDS011;2125;51.436;14.138;2022-12-29T09:52:11;1.43;;;0.97;;
4222;SDS011;2125;51.436;14.138;2022-12-29T09:54:41;1.83;;;1.10;;
4222;SDS011;2125;51.436;14.138;2022-12-29T09:57:15;1.33;;;0.93;;
4222;SDS011;2125;51.436;14.138;2022-12-29T09:59:46;1.20;;;0.90;;
4222;SDS011;2125;51.436;14.138;2022-12-29T10:02:23;1.53;;;0.90;;
4222;SDS011;2125;51.436;14.138;2022-12-29T10:04:58;1.70;;;1.13;;
4222;SDS011;2125;51.436;14.138;2022-12-29T10:07:28;1.73;;;0.77;;
4222;SDS011;2125;51.436;14.138;2022-12-29T10:10:03;1.00;;;0.70;;
4222;SDS011;2125;51.436;14.138;2022-12-29T10:12:52;1.43;;;0.70;;
4222;SDS011;2125;51.436;14.138;2022-12-29T10:15:30;0.97;;;0.80;;
4222;SDS011;2125;51.436;14.138;2022-12-29T10:18:08;0.93;;;0.80;;
4222;SDS011;2125;51.436;14.138;2022-12-29T10:20:48;1.60;;;1.27;;
4222;SDS011;2125;51.436;14.138;2022-12-29T10:23:25;2.23;;;1.00;;
4222;SDS011;2125;51.436;14.138;2022-12-29T10:25:56;1.10;;;0.80;;
4222;SDS011;2125;51.436;14.138;2022-12-29T10:28:24;1.50;;;0.93;;
4222;SDS011;2125;51.436;14.138;2022-12-29T10:31:00;2.30;;;1.47;;
4222;SDS011;2125;51.436;14.138;2022-12-29T10:33:32;2.77;;;0.80;;
4222;SDS011;2125;51.436;14.138;2022-12-29T10:36:02;2.27;;;1.30;;
4222;SDS011;2125;51.436;14.138;2022-12-29T10:38:42;1.23;;;0.80;;
4222;SDS011;2125;51.436;14.138;2022-12-29T10:41:15;0.80;;;0.53;;
4222;SDS011;2125;51.436;14.138;2022-12-29T10:43:47;2.10;;;1.33;;
4222;SDS011;2125;51.436;14.138;2022-12-29T10:46:16;0.87;;;0.70;;
4222;SDS011;2125;51.436;14.138;2022-12-29T10:48:47;1.17;;;0.83;;
4222;SDS011;2125;51.436;14.138;2022-12-29T10:51:18;1.40;;;0.90;;
4222;SDS011;2125;51.436;14.138;2022-12-29T10:53:48;1.93;;;1.00;;
4222;SDS011;2125;51.436;14.138;2022-12-29T10:56:21;4.07;;;1.20;;
4222;SDS011;2125;51.436;14.138;2022-12-29T10:58:54;1.13;;;1.07;;
4222;SDS011;2125;51.436;14.138;2022-12-29T11:01:22;0.87;;;0.80;;
4222;SDS011;2125;51.436;14.138;2022-12-29T11:04:03;1.10;;;1.00;;
4222;SDS011;2125;51.436;14.138;2022-12-29T11:06:37;1.10;;;0.70;;
4222;SDS011;2125;51.436;14.138;2022-12-29T11:09:08;1.00;;;0.80;;
4222;SDS011;2125;51.436;14.138;2022-12-29T11:11:40;1.43;;;0.80;;
4222;SDS011;2125;51.436;14.138;2022-12-29T11:14:10;1.00;;;0.80;;
4222;SDS011;2125;51.436;14.138;2022-12-29T11:16:39;1.37;;;0.77;;
4222;SDS011;2125;51.436;14.138;2022-12-29T11:19:20;1.87;;;1.10;;
4222;SDS011;2125;51.436;14.138;2022-12-29T11:21:48;0.97;;;0.90;;
4222;SDS011;2125;51.436;14.138;2022-12-29T11:24:19;2.07;;;0.70;;
4222;SDS011;2125;51.436;14.138;2022-12-29T11:26:49;1.20;;;0.90;;
4222;SDS011;2125;51.436;14.138;2022-12-29T11:29:22;0.70;;;0.63;;
4222;SDS011;2125;51.436;14.138;2022-12-29T11:31:51;1.63;;;1.03;;
4222;SDS011;2125;51.436;14.138;2022-12-29T11:34:21;1.00;;;0.90;;
4222;SDS011;2125;51.436;14.138;2022-12-29T11:36:51;2.57;;;0.87;;
4222;SDS011;2125;51.436;14.138;2022-12-29T11:39:28;1.57;;;1.00;;
4222;SDS011;2125;51.436;14.138;2022-12-29T11:41:58;1.23;;;0.87;;
4222;SDS011;2125;51.436;14.138;2022-12-29T11:44:27;1.13;;;1.00;;
4222;SDS011;2125;51.436;14.138;2022-12-29T11:46:58;0.90;;;0.60;;
4222;SDS011;2125;51.436;14.138;2022-12-29T11:49:26;0.80;;;0.67;;
4222;SDS011;2125;51.436;14.138;2022-12-29T11:51:53;2.53;;;1.07;;
4222;SDS011;2125;51.436;14.138;2022-12-29T11:54:22;1.27;;;0.60;;
4222;SDS011;2125;51.436;14.138;2022-12-29T11:56:50;1.00;;;0.90;;
4222;SDS011;2125;51.436;14.138;2022-12-29T11:59:38;1.23;;;0.70;;
4222;SDS011;2125;51.436;14.138;2022-12-29T12:02:22;1.50;;;0.80;;
4222;SDS011;2125;51.436;14.138;2022-12-29T12:05:10;2.17;;;1.00;;
4222;SDS011;2125;51.436;14.138;2022-12-29T12:07:49;1.67;;;1.13;;
4222;SDS011;2125;51.436;14.138;2022-12-29T12:10:23;1.07;;;0.60;;
4222;SDS011;2125;51.436;14.138;2022-12-29T12:12:58;0.90;;;0.60;;
4222;SDS011;2125;51.436;14.138;2022-12-29T12:15:30;1.87;;;1.23;;
4222;SDS011;2125;51.436;14.138;2022-12-29T12:18:03;1.80;;;0.90;;
4222;SDS011;2125;51.436;14.138;2022-12-29T12:20:38;1.00;;;0.70;;
4222;SDS011;2125;51.436;14.138;2022-12-29T12:23:16;1.10;;;0.70;;
4222;SDS011;2125;51.436;14.138;2022-12-29T12:25:53;1.63;;;0.83;;
4222;SDS011;2125;51.436;14.138;2022-12-29T12:28:26;1.80;;;0.90;;
4222;SDS011;2125;51.436;14.138;2022-12-29T12:30:59;3.33;;;1.00;;
4222;SDS011;2125;51.436;14.138;2022-12-29T12:33:30;0.93;;;0.83;;
4222;SDS011;2125;51.436;14.138;2022-12-29T12:36:07;1.30;;;0.90;;
4222;SDS011;2125;51.436;14.138;2022-12-29T12:38:45;1.87;;;0.90;;
4222;SDS011;2125;51.436;14.138;2022-12-29T12:41:20;1.37;;;0.70;;
4222;SDS011;2125;51.436;14.138;2022-12-29T12:43:57;1.07;;;0.80;;
4222;SDS011;2125;51.436;14.138;2022-12-29T12:49:36;0.93;;;0.77;;
4222;SDS011;2125;51.436;14.138;2022-12-29T12:52:24;1.43;;;0.80;;
4222;SDS011;2125;51.436;14.138;2022-12-29T12:55:02;2.60;;;1.13;;
4222;SDS011;2125;51.436;14.138;2022-12-29T12:57:56;0.60;;;0.60;;
4222;SDS011;2125;51.436;14.138;2022-12-29T13:00:34;1.13;;;1.00;;
4222;SDS011;2125;51.436;14.138;2022-12-29T13:03:10;2.63;;;1.00;;
4222;SDS011;2125;51.436;14.138;2022-12-29T13:05:46;0.93;;;0.70;;
4222;SDS011;2125;51.436;14.138;2022-12-29T13:08:40;2.33;;;0.90;;
4222;SDS011;2125;51.436;14.138;2022-12-29T13:11:24;0.90;;;0.60;;
4222;SDS011;2125;51.436;14.138;2022-12-29T13:14:10;2.53;;;0.97;;
4222;SDS011;2125;51.436;14.138;2022-12-29T13:16:45;1.30;;;0.80;;
4222;SDS011;2125;51.436;14.138;2022-12-29T13:19:20;0.80;;;0.80;;
4222;SDS011;2125;51.436;14.138;2022-12-29T13:21:58;1.90;;;0.67;;
4222;SDS011;2125;51.436;14.138;2022-12-29T13:24:39;1.03;;;0.67;;
4222;SDS011;2125;51.436;14.138;2022-12-29T13:27:19;0.70;;;0.60;;
4222;SDS011;2125;51.436;14.138;2022-12-29T13:29:56;1.83;;;0.90;;
4222;SDS011;2125;51.436;14.138;2022-12-29T13:32:30;2.30;;;1.07;;
4222;SDS011;2125;51.436;14.138;2022-12-29T13:35:19;1.60;;;1.00;;
4222;SDS011;2125;51.436;14.138;2022-12-29T13:38:07;1.10;;;0.73;;
4222;SDS011;2125;51.436;14.138;2022-12-29T13:40:40;3.90;;;0.93;;
4222;SDS011;2125;51.436;14.138;2022-12-29T13:43:11;1.10;;;0.80;;
4222;SDS011;2125;51.436;14.138;2022-12-29T13:45:38;1.10;;;0.67;;
4222;SDS011;2125;51.436;14.138;2022-12-29T13:48:07;2.13;;;0.90;;
4222;SDS011;2125;51.436;14.138;2022-12-29T13:50:41;1.17;;;0.97;;
4222;SDS011;2125;51.436;14.138;2022-12-29T13:53:14;1.10;;;0.80;;
4222;SDS011;2125;51.436;14.138;2022-12-29T13:55:48;2.43;;;0.80;;
4222;SDS011;2125;51.436;14.138;2022-12-29T13:58:23;1.80;;;0.83;;
4222;SDS011;2125;51.436;14.138;2022-12-29T14:00:58;1.53;;;0.97;;
4222;SDS011;2125;51.436;14.138;2022-12-29T14:06:23;2.13;;;0.80;;
4222;SDS011;2125;51.436;14.138;2022-12-29T14:08:52;2.90;;;0.97;;
4222;SDS011;2125;51.436;14.138;2022-12-29T14:11:22;1.10;;;1.00;;
4222;SDS011;2125;51.436;14.138;2022-12-29T14:13:55;1.70;;;1.07;;
4222;SDS011;2125;51.436;14.138;2022-12-29T14:16:26;1.20;;;0.80;;
4222;SDS011;2125;51.436;14.138;2022-12-29T14:18:55;5.97;;;1.33;;
4222;SDS011;2125;51.436;14.138;2022-12-29T14:21:29;1.33;;;0.90;;
4222;SDS011;2125;51.436;14.138;2022-12-29T14:24:02;1.20;;;1.00;;
4222;SDS011;2125;51.436;14.138;2022-12-29T14:30:45;2.13;;;1.40;;
4222;SDS011;2125;51.436;14.138;2022-12-29T14:33:14;3.10;;;1.07;;
4222;SDS011;2125;51.436;14.138;2022-12-29T14:35:42;1.23;;;0.90;;
4222;SDS011;2125;51.436;14.138;2022-12-29T14:44:01;1.00;;;0.73;;
4222;SDS011;2125;51.436;14.138;2022-12-29T14:46:42;2.50;;;1.10;;
4222;SDS011;2125;51.436;14.138;2022-12-29T14:49:14;0.80;;;0.73;;
4222;SDS011;2125;51.436;14.138;2022-12-29T14:51:45;2.00;;;0.83;;
4222;SDS011;2125;51.436;14.138;2022-12-29T14:57:13;2.20;;;1.03;;
4222;SDS011;2125;51.436;14.138;2022-12-29T14:59:45;1.80;;;0.90;;
4222;SDS011;2125;51.436;14.138;2022-12-29T15:02:14;2.17;;;1.10;;
4222;SDS011;2125;51.436;14.138;2022-12-29T15:04:44;2.50;;;0.90;;
4222;SDS011;2125;51.436;14.138;2022-12-29T15:07:14;0.90;;;0.80;;
4222;SDS011;2125;51.436;14.138;2022-12-29T15:09:51;2.20;;;1.30;;
4222;SDS011;2125;51.436;14.138;2022-12-29T15:12:35;1.53;;;1.20;;
4222;SDS011;2125;51.436;14.138;2022-12-29T15:15:16;1.13;;;0.60;;
4222;SDS011;2125;51.436;14.138;2022-12-29T15:17:45;1.13;;;0.87;;
4222;SDS011;2125;51.436;14.138;2022-12-29T15:20:20;1.80;;;1.03;;
4222;SDS011;2125;51.436;14.138;2022-12-29T15:22:53;2.80;;;1.10;;
4222;SDS011;2125;51.436;14.138;2022-12-29T15:25:23;0.77;;;0.77;;
4222;SDS011;2125;51.436;14.138;2022-12-29T15:27:52;2.80;;;1.40;;
4222;SDS011;2125;51.436;14.138;2022-12-29T15:30:23;1.23;;;0.73;;
4222;SDS011;2125;51.436;14.138;2022-12-29T15:32:50;1.30;;;0.80;;
4222;SDS011;2125;51.436;14.138;2022-12-29T15:35:29;1.00;;;0.90;;
4222;SDS011;2125;51.436;14.138;2022-12-29T15:37:57;1.50;;;0.93;;
4222;SDS011;2125;51.436;14.138;2022-12-29T15:40:26;3.73;;;1.20;;
4222;SDS011;2125;51.436;14.138;2022-12-29T15:45:50;1.83;;;1.13;;